West Mansfield, Ohio
Current Conditions -  °F | °C
As of 8:10 PM on Saturday 20 Dec 2014 (Local Time) from KEDJ Reporting Station
Scattered Clouds Scattered Clouds  
Wind Chill: 27°   Ceiling: Unl
Heat Index: 27°   Visibility: 9mi
Dew Point: 25°   Wind: 3mph
Humidity: 93%   Direction: 190°S
Pressure: 30.28"   Gusts: NA
Location:  40.4°N, 83.55°W
Report Text: KEDJ 210110Z AUTO 19003KT 9SM SCT018 M03/M04 A3028 RMK AO1
Loading
Personal Weather Stations






























Interactive Weather Map New forecast layout! Learn more

10-Day Weather Forecast

Advertisements
Track Severe Weather on mobile